Time;durP1;ratioP1;P1;durP2;ratioP2;P2;SDS_P1;SDS_P2;PMS_P1;PMS_P2;Temp;Humidity;BMP_temperature;BMP_pressure;BME280_temperature;BME280_humidity;BME280_pressure;Samples;Min_cycle;Max_cycle;Signal;HPM_P1;HPM_P2
2023/11/11 00:01:19;;;;;;;3.40;0.82;;;;;;;10.63;100.00;97569.00;4888348;29;20052;-93
2023/11/11 00:03:52;;;;;;;4.43;0.90;;;;;;;10.06;100.00;97467.97;4893422;29;20046;-93
2023/11/11 00:06:19;;;;;;;3.17;0.80;;;;;;;10.85;100.00;97598.13;4894357;29;20044;-93
2023/11/11 00:08:46;;;;;;;2.13;1.08;;;;;;;10.90;100.00;97604.06;4886690;29;20506;-90
2023/11/11 00:11:14;;;;;;;2.88;0.77;;;;;;;10.18;100.00;97493.09;4886757;29;20044;-91
2023/11/11 00:13:44;;;;;;;2.15;0.85;;;;;;;10.59;100.00;97559.44;4897698;29;20040;-92
2023/11/11 00:16:12;;;;;;;2.70;0.90;;;;;;;10.27;100.00;97513.91;4895025;29;20076;-93
2023/11/11 00:18:38;;;;;;;4.45;0.95;;;;;;;10.10;100.00;97481.09;4892872;29;20061;-93
2023/11/11 00:21:04;;;;;;;2.42;0.75;;;;;;;9.99;100.00;97498.38;4896496;29;20093;-93
2023/11/11 00:23:30;;;;;;;3.70;1.52;;;;;;;10.00;100.00;97483.31;4896582;29;20435;-91
2023/11/11 00:26:00;;;;;;;5.00;0.90;;;;;;;10.96;100.00;97640.16;4898832;29;20048;-92
2023/11/11 00:28:28;;;;;;;;;;;;;;;11.07;100.00;97635.19;4904967;29;20078;-93
2023/11/11 00:30:54;;;;;;;2.25;0.60;;;;;;;10.03;100.00;97472.56;4903581;29;19990;-93
2023/11/11 00:33:20;;;;;;;3.85;1.25;;;;;;;11.13;100.00;97647.34;4903406;29;20530;-92
2023/11/11 00:35:46;;;;;;;1.70;0.73;;;;;;;10.95;100.00;97641.13;4896698;29;20052;-93
2023/11/11 00:38:12;;;;;;;3.95;0.60;;;;;;;11.06;100.00;97648.56;4890678;29;20040;-91
2023/11/11 00:40:39;;;;;;;3.85;0.70;;;;;;;10.63;100.00;97537.09;4892317;29;20135;-91
2023/11/11 00:43:10;;;;;;;1.30;0.60;;;;;;;10.46;100.00;97482.06;4893266;29;20431;-92
2023/11/11 00:45:36;;;;;;;4.70;0.60;;;;;;;10.96;100.00;97602.06;4894112;29;20049;-92
2023/11/11 00:48:02;;;;;;;1.30;0.63;;;;;;;11.18;100.00;97645.34;4885888;29;20055;-91
2023/11/11 00:50:28;;;;;;;2.72;0.77;;;;;;;10.47;100.00;97529.00;4893291;29;20486;-92
2023/11/11 00:52:55;;;;;;;1.60;0.77;;;;;;;10.14;100.00;97490.66;4893614;29;20418;-92
2023/11/11 00:55:21;;;;;;;2.55;0.95;;;;;;;10.54;100.00;97593.38;4896216;29;20540;-92
2023/11/11 00:57:47;;;;;;;2.28;0.82;;;;;;;10.88;100.00;97627.22;4896952;29;20056;-92
2023/11/11 01:00:21;;;;;;;1.77;0.68;;;;;;;10.79;100.00;97569.16;4901098;29;20052;-91
2023/11/11 01:02:47;;;;;;;3.65;0.70;;;;;;;10.87;100.00;97593.59;4896085;29;20056;-93
2023/11/11 01:05:14;;;;;;;2.58;0.80;;;;;;;10.70;100.00;97543.00;4889168;29;20092;-92
2023/11/11 01:07:39;;;;;;;3.42;0.85;;;;;;;11.45;100.00;97655.59;4895335;29;20064;-92
2023/11/11 01:10:08;;;;;;;3.53;1.10;;;;;;;10.84;100.00;97543.22;4893516;29;20079;-92
2023/11/11 01:12:34;;;;;;;1.90;0.60;;;;;;;10.92;100.00;97566.78;4899356;29;20124;-93
2023/11/11 01:15:00;;;;;;;3.08;0.85;;;;;;;10.45;100.00;97492.78;4888115;29;20036;-93
2023/11/11 01:17:29;;;;;;;3.25;0.88;;;;;;;11.25;100.00;97635.25;4893391;29;20044;-91
2023/11/11 01:19:55;;;;;;;2.92;1.30;;;;;;;10.65;100.00;97523.75;4890299;29;20068;-93
2023/11/11 01:22:21;;;;;;;3.72;1.00;;;;;;;11.47;100.00;97656.38;4889898;29;20511;-92
2023/11/11 01:24:49;;;;;;;1.77;1.00;;;;;;;10.89;100.00;97564.28;4893531;29;20032;-93
2023/11/11 01:27:15;;;;;;;4.45;1.52;;;;;;;10.59;100.00;97510.75;4893116;29;20031;-92
2023/11/11 01:29:42;;;;;;;2.35;1.10;;;;;;;11.06;100.00;97616.63;4896526;29;20047;-93
2023/11/11 01:32:08;;;;;;;1.65;1.08;;;;;;;11.28;100.00;97635.13;4894974;29;20394;-93
2023/11/11 01:34:35;;;;;;;2.75;0.90;;;;;;;11.35;100.00;97664.97;4898752;29;20541;-93
2023/11/11 01:37:07;;;;;;;2.75;0.85;;;;;;;10.76;100.00;97589.72;4891057;29;20112;-92
2023/11/11 01:39:34;;;;;;;2.38;0.70;;;;;;;10.99;100.00;97631.16;4888871;29;20055;-92
2023/11/11 01:42:00;;;;;;;0.95;0.57;;;;;;;11.18;100.00;97666.63;4893562;29;20048;-93
2023/11/11 01:44:26;;;;;;;3.20;0.80;;;;;;;10.84;100.00;97608.81;4892451;29;20054;-94
2023/11/11 01:46:52;;;;;;;2.55;0.80;;;;;;;10.17;100.00;97501.13;4892196;29;20045;-93
2023/11/11 01:49:20;;;;;;;5.55;0.73;;;;;;;10.54;100.00;97584.50;4898145;29;20051;-93
2023/11/11 01:51:51;;;;;;;2.50;1.88;;;;;;;10.34;100.00;97522.50;4893391;29;20451;-93
2023/11/11 01:54:18;;;;;;;1.15;0.60;;;;;;;10.70;100.00;97564.25;4901359;29;20075;-95
2023/11/11 01:56:44;;;;;;;1.58;0.65;;;;;;;10.69;100.00;97570.50;4900486;29;20060;-94
2023/11/11 01:59:11;;;;;;;2.70;0.50;;;;;;;10.59;100.00;97543.50;4894318;29;20495;-94
2023/11/11 02:01:37;;;;;;;0.57;0.40;;;;;;;10.72;100.00;97591.66;4893036;29;20087;-93
2023/11/11 02:04:03;;;;;;;2.13;0.93;;;;;;;10.10;100.00;97495.22;4901751;29;20458;-93
2023/11/11 02:06:30;;;;;;;2.50;0.50;;;;;;;10.23;100.00;97524.75;4903191;29;20092;-93
2023/11/11 02:08:57;;;;;;;2.00;0.50;;;;;;;10.81;100.00;97620.47;4902151;29;20070;-93
2023/11/11 02:11:24;;;;;;;2.33;0.47;;;;;;;10.42;100.00;97560.22;4890268;29;20052;-93
2023/11/11 02:13:50;;;;;;;1.42;0.40;;;;;;;10.36;100.00;97554.31;4895648;29;20055;-92
2023/11/11 02:16:16;;;;;;;2.60;0.47;;;;;;;10.40;100.00;97566.53;4898368;29;20076;-93
2023/11/11 02:18:42;;;;;;;2.65;1.02;;;;;;;10.90;100.00;97672.38;4899591;29;20044;-93
2023/11/11 02:21:11;;;;;;;3.05;0.80;;;;;;;10.12;100.00;97537.66;4888058;29;20077;-92
2023/11/11 02:23:38;;;;;;;7.88;1.10;;;;;;;10.69;100.00;97668.88;4892058;29;20040;-93
2023/11/11 02:26:05;;;;;;;2.38;1.10;;;;;;;10.59;100.00;97667.59;4899096;29;20079;-93
2023/11/11 02:28:31;;;;;;;1.83;0.90;;;;;;;10.60;100.00;97677.28;4900634;29;20494;-93
2023/11/11 02:30:57;;;;;;;2.55;0.70;;;;;;;9.63;100.00;97560.16;4892422;29;20067;-93
2023/11/11 02:33:24;;;;;;;1.83;0.70;;;;;;;9.72;100.00;97593.41;4893095;29;20062;-92
2023/11/11 02:35:50;;;;;;;3.47;0.80;;;;;;;9.53;100.00;97606.56;4900425;29;20131;-93
2023/11/11 02:38:16;;;;;;;2.38;0.80;;;;;;;9.49;100.00;97654.53;4894488;29;20041;-92
2023/11/11 02:40:43;;;;;;;2.75;0.73;;;;;;;9.33;100.00;97583.50;4899199;29;20055;-93
2023/11/11 02:43:11;;;;;;;1.02;0.70;;;;;;;9.01;100.00;97576.84;4892697;29;20451;-93
2023/11/11 02:45:39;;;;;;;3.38;0.75;;;;;;;8.90;100.00;97540.16;4895328;29;20092;-93
2023/11/11 02:48:06;;;;;;;2.10;0.80;;;;;;;8.52;100.00;97526.66;4887603;29;20049;-92
2023/11/11 02:50:32;;;;;;;3.55;0.77;;;;;;;9.27;100.00;97593.53;4894390;29;20383;-93
2023/11/11 02:52:58;;;;;;;2.83;1.00;;;;;;;9.20;100.00;97580.50;4895842;29;20499;-92
2023/11/11 02:55:24;;;;;;;1.05;0.55;;;;;;;8.94;100.00;97559.47;4894565;29;20103;-94
2023/11/11 02:57:52;;;;;;;1.33;0.52;;;;;;;9.80;100.00;97694.81;4897501;29;20020;-92
2023/11/11 03:00:18;;;;;;;0.98;0.52;;;;;;;8.87;100.00;97545.59;4900475;29;20068;-92
2023/11/11 03:02:46;;;;;;;5.10;0.68;;;;;;;9.21;100.00;97589.31;4914579;29;20167;-92
2023/11/11 03:05:12;;;;;;;1.40;0.47;;;;;;;8.98;100.00;97566.38;4897627;29;20043;-91
2023/11/11 03:07:38;;;;;;;3.10;0.60;;;;;;;9.81;100.00;97695.69;4896892;29;20046;-93
2023/11/11 03:10:05;;;;;;;2.42;0.80;;;;;;;9.39;100.00;97625.72;4893427;29;20053;-91
2023/11/11 03:12:32;;;;;;;0.88;0.43;;;;;;;9.09;100.00;97588.03;4895061;29;20048;-91
2023/11/11 03:15:01;;;;;;;3.15;0.38;;;;;;;9.53;100.00;97648.16;4895164;29;20120;-93
2023/11/11 03:17:27;;;;;;;0.50;0.32;;;;;;;8.77;100.00;97534.50;4891378;29;20041;-93
2023/11/11 03:19:53;;;;;;;4.38;1.02;;;;;;;8.94;100.00;97580.69;4893799;29;20418;-93
2023/11/11 03:22:19;;;;;;;2.08;0.73;;;;;;;8.56;100.00;97506.19;4889723;29;20037;-92
2023/11/11 03:24:47;;;;;;;2.25;0.65;;;;;;;8.78;100.00;97544.19;4888904;29;20137;-92
2023/11/11 03:27:13;;;;;;;4.25;0.68;;;;;;;9.08;100.00;97588.09;4886117;29;20040;-92
2023/11/11 03:29:41;;;;;;;3.47;0.85;;;;;;;8.96;100.00;97571.75;4891301;29;20055;-92
2023/11/11 03:32:11;;;;;;;3.35;1.05;;;;;;;9.05;100.00;97589.06;4899431;29;20055;-93
2023/11/11 03:34:38;;;;;;;2.40;0.52;;;;;;;9.50;100.00;97694.28;4891415;29;20402;-91
2023/11/11 03:37:04;;;;;;;2.75;1.02;;;;;;;8.93;100.00;97600.16;4892873;29;20056;-92
2023/11/11 03:39:31;;;;;;;0.73;0.40;;;;;;;9.44;100.00;97665.34;4895748;29;20113;-92
2023/11/11 03:41:59;;;;;;;2.08;0.57;;;;;;;8.58;100.00;97544.94;4889706;29;20135;-92
2023/11/11 03:44:25;;;;;;;1.25;0.43;;;;;;;9.44;100.00;97673.28;4888130;29;20024;-92
2023/11/11 03:46:53;;;;;;;6.10;0.70;;;;;;;8.36;100.00;97501.63;4893229;29;20047;-94
2023/11/11 03:49:21;;;;;;;1.40;0.55;;;;;;;8.67;100.00;97543.72;4891079;29;20045;-91
2023/11/11 03:51:47;;;;;;;3.67;0.50;;;;;;;8.78;100.00;97613.09;4882424;29;20052;-92
2023/11/11 03:54:13;;;;;;;2.38;0.43;;;;;;;8.42;100.00;97557.06;4895208;29;20057;-92
2023/11/11 03:56:38;;;;;;;2.58;0.55;;;;;;;8.85;100.00;97645.53;4894664;29;20044;-92
2023/11/11 03:59:05;;;;;;;1.63;0.70;;;;;;;9.31;100.00;97717.16;4898363;29;20076;-92
2023/11/11 04:01:34;;;;;;;1.75;0.47;;;;;;;9.01;100.00;97651.97;4896724;29;20064;-92
2023/11/11 04:04:02;;;;;;;1.13;0.52;;;;;;;8.86;100.00;97675.56;4888960;29;20057;-91
2023/11/11 04:06:30;;;;;;;7.53;0.85;;;;;;;8.14;100.00;97539.53;4902095;29;20048;-92
2023/11/11 04:08:56;;;;;;;1.05;0.77;;;;;;;8.31;100.00;97548.63;4895810;29;20044;-93
2023/11/11 04:11:23;;;;;;;8.68;0.95;;;;;;;8.31;100.00;97544.19;4892838;29;20494;-93
2023/11/11 04:13:50;;;;;;;3.10;0.60;;;;;;;8.00;100.00;97524.16;4896505;29;20071;-92
2023/11/11 04:16:16;;;;;;;0.80;0.52;;;;;;;8.60;100.00;97619.94;4896560;29;20451;-92
2023/11/11 04:18:44;;;;;;;6.28;0.82;;;;;;;8.69;100.00;97613.44;4897085;29;20136;-91
2023/11/11 04:21:12;;;;;;;1.50;0.57;;;;;;;8.54;100.00;97580.41;4900456;29;20122;-91
2023/11/11 04:23:40;;;;;;;1.13;0.52;;;;;;;8.91;100.00;97633.81;4898548;29;20389;-92
2023/11/11 04:26:06;;;;;;;3.08;0.70;;;;;;;8.55;100.00;97597.22;4894957;29;20031;-92
2023/11/11 04:28:32;;;;;;;2.90;0.65;;;;;;;8.45;100.00;97566.69;4891109;29;20072;-92
2023/11/11 04:30:59;;;;;;;1.33;0.73;;;;;;;8.38;100.00;97558.06;4901964;28;20028;-92
2023/11/11 04:33:26;;;;;;;0.80;0.40;;;;;;;9.27;100.00;97712.88;4898573;29;20048;-93
2023/11/11 04:35:55;;;;;;;1.17;0.57;;;;;;;8.89;100.00;97680.72;4903691;29;20040;-92
2023/11/11 04:38:23;;;;;;;3.67;0.75;;;;;;;8.86;100.00;97672.91;4890212;29;20068;-93
2023/11/11 04:40:51;;;;;;;3.65;0.75;;;;;;;8.80;100.00;97643.06;4889073;29;20395;-93
2023/11/11 04:43:18;;;;;;;1.95;0.50;;;;;;;8.75;100.00;97618.50;4895767;29;20044;-94
2023/11/11 04:45:44;;;;;;;3.45;0.60;;;;;;;9.27;100.00;97723.50;4898910;29;20063;-93
2023/11/11 04:48:10;;;;;;;8.05;0.98;;;;;;;8.32;100.00;97535.31;4891875;29;20072;-92
2023/11/11 04:50:36;;;;;;;1.83;0.40;;;;;;;8.79;100.00;97633.38;4891414;29;20467;-92
2023/11/11 04:53:02;;;;;;;4.97;1.23;;;;;;;8.82;100.00;97665.03;4896649;29;20435;-92
2023/11/11 04:55:28;;;;;;;3.40;0.80;;;;;;;9.18;100.00;97722.06;4895781;29;20108;-91
2023/11/11 04:57:55;;;;;;;1.23;0.47;;;;;;;8.56;100.00;97628.94;4909792;29;20052;-92
2023/11/11 05:00:24;;;;;;;3.15;0.95;;;;;;;8.49;100.00;97637.16;4894101;29;20051;-93
2023/11/11 05:02:51;;;;;;;2.35;0.85;;;;;;;8.42;100.00;97599.44;4898521;29;20417;-92
2023/11/11 05:05:20;;;;;;;1.50;0.57;;;;;;;8.62;100.00;97630.50;4899005;29;20055;-92
2023/11/11 05:07:48;;;;;;;3.30;0.63;;;;;;;9.17;100.00;97723.88;4901735;29;20074;-93
2023/11/11 05:10:17;;;;;;;1.98;0.88;;;;;;;8.88;100.00;97676.38;4894380;29;20051;-91
2023/11/11 05:12:43;;;;;;;1.60;0.88;;;;;;;8.43;100.00;97678.84;4897831;29;20108;-91
2023/11/11 05:15:15;;;;;;;1.75;0.90;;;;;;;9.09;100.00;97731.25;4891884;29;20136;-93
2023/11/11 05:17:42;;;;;;;10.60;1.20;;;;;;;9.17;100.00;97715.91;4902335;29;20040;-92
2023/11/11 05:20:10;;;;;;;1.48;0.60;;;;;;;8.25;100.00;97575.34;4899304;28;20039;-92
2023/11/11 05:22:37;;;;;;;3.97;0.93;;;;;;;8.65;100.00;97704.56;4891408;29;20578;-91
2023/11/11 05:25:04;;;;;;;3.40;1.05;;;;;;;8.60;100.00;97682.69;4896212;29;20044;-93
2023/11/11 05:27:34;;;;;;;4.93;1.05;;;;;;;8.48;100.00;97595.69;4889714;29;20044;-93
2023/11/11 05:30:00;;;;;;;3.10;0.70;;;;;;;8.94;100.00;97706.16;4899881;29;20055;-92
2023/11/11 05:32:31;;;;;;;3.95;1.33;;;;;;;8.64;100.00;97676.34;4890432;29;20028;-92
2023/11/11 05:35:00;;;;;;;1.90;1.00;;;;;;;9.16;100.00;97738.03;4890255;29;20487;-93
2023/11/11 05:37:28;;;;;;;1.98;0.50;;;;;;;8.33;100.00;97597.13;4897378;29;20051;-92
2023/11/11 05:39:54;;;;;;;10.80;1.10;;;;;;;8.73;100.00;97676.00;4896763;29;20145;-92
2023/11/11 05:42:20;;;;;;;4.78;1.05;;;;;;;8.48;100.00;97620.41;4893965;29;20580;-94
2023/11/11 05:44:46;;;;;;;10.35;0.95;;;;;;;9.37;100.00;97757.59;4900494;29;20517;-92
2023/11/11 05:47:14;;;;;;;7.22;1.25;;;;;;;8.75;100.00;97622.94;4892715;29;20045;-92
2023/11/11 05:49:44;;;;;;;4.47;0.50;;;;;;;9.48;100.00;97758.94;4892273;29;20045;-94
2023/11/11 05:52:11;;;;;;;5.57;0.75;;;;;;;8.98;100.00;97696.31;4894134;29;20045;-92
2023/11/11 05:54:39;;;;;;;2.60;0.38;;;;;;;9.14;100.00;97723.09;4891728;29;20052;-93
2023/11/11 05:57:11;;;;;;;4.03;0.60;;;;;;;8.90;100.00;97640.06;4902446;29;20384;-92
2023/11/11 05:59:37;;;;;;;6.38;0.90;;;;;;;9.51;100.00;97725.19;4895127;29;20044;-93
2023/11/11 06:02:05;;;;;;;1.15;0.43;;;;;;;9.43;100.00;97688.34;4888910;29;20045;-94
2023/11/11 06:04:36;;;;;;;4.78;0.77;;;;;;;9.56;100.00;97701.97;4893333;29;20075;-92
2023/11/11 06:07:07;;;;;;;4.15;0.57;;;;;;;9.25;100.00;97617.44;4898993;29;20056;-91
2023/11/11 06:09:35;;;;;;;4.80;1.10;;;;;;;9.43;100.00;97661.81;4897165;29;20044;-92
2023/11/11 06:12:19;;;;;;;5.35;1.10;;;;;;;9.39;100.00;97659.31;4893526;29;20056;-94
2023/11/11 06:14:49;;;;;;;3.72;0.70;;;;;;;10.01;100.00;97777.19;4893375;29;20058;-92
2023/11/11 06:17:15;;;;;;;2.33;0.80;;;;;;;9.83;100.00;97723.03;4888828;29;20055;-93
2023/11/11 06:19:41;;;;;;;7.93;0.65;;;;;;;10.38;100.00;97789.84;4900304;28;20039;-93
2023/11/11 06:22:34;;;;;;;3.03;0.85;;;;;;;9.63;100.00;97636.25;4898027;29;20214;-92
2023/11/11 06:25:01;;;;;;;3.03;0.70;;;;;;;9.91;100.00;97720.94;4898992;29;20050;-93
2023/11/11 06:27:34;;;;;;;2.47;0.80;;;;;;;9.74;100.00;97708.34;4892991;29;20037;-95
2023/11/11 06:30:08;;;;;;;1.90;0.68;;;;;;;9.82;100.00;97739.88;4895733;29;20063;-95
2023/11/11 06:35:48;;;;;;;8.80;0.80;;;;;;;10.10;100.00;97754.69;4905097;29;20048;-93
2023/11/11 06:38:23;;;;;;;5.72;0.77;;;;;;;10.17;100.00;97788.03;4904653;29;20040;-92
2023/11/11 06:40:55;;;;;;;7.63;0.80;;;;;;;9.73;100.00;97700.44;4902696;29;20048;-93
2023/11/11 06:43:28;;;;;;;6.85;0.80;;;;;;;10.40;100.00;97806.59;4903775;29;20040;-92
2023/11/11 06:45:59;;;;;;;1.75;0.70;;;;;;;10.65;100.00;97833.00;4894731;29;20561;-93
2023/11/11 06:48:26;;;;;;;2.22;0.70;;;;;;;9.80;100.00;97685.97;4896470;29;20044;-93
2023/11/11 06:50:52;;;;;;;10.90;0.98;;;;;;;10.35;100.00;97783.81;4893279;29;20087;-92
2023/11/11 06:53:24;;;;;;;2.47;0.60;;;;;;;10.59;100.00;97827.94;4891710;29;20036;-91
2023/11/11 06:55:50;;;;;;;2.78;1.13;;;;;;;9.82;100.00;97708.03;4899622;29;20048;-92
2023/11/11 06:58:20;;;;;;;6.88;1.30;;;;;;;9.94;100.00;97715.50;4904043;29;20045;-94
2023/11/11 07:00:46;;;;;;;7.30;1.27;;;;;;;9.89;100.00;97714.81;4899125;29;20048;-94
2023/11/11 07:03:12;;;;;;;2.67;0.77;;;;;;;9.93;100.00;97723.50;4903729;29;20044;-93
2023/11/11 07:05:38;;;;;;;5.03;0.70;;;;;;;10.00;100.00;97757.72;4907689;29;20056;-93
2023/11/11 07:08:05;;;;;;;3.90;0.73;;;;;;;9.99;100.00;97756.00;4906092;29;20380;-93
2023/11/11 07:10:35;;;;;;;3.53;1.00;;;;;;;10.51;100.00;97839.84;4902253;29;20048;-93
2023/11/11 07:13:01;;;;;;;8.88;2.72;;;;;;;10.69;100.00;97855.00;4904181;29;20044;-94
2023/11/11 07:15:27;;;;;;;15.25;2.75;;;;;;;10.05;100.00;97736.28;4905105;29;20043;-94
2023/11/11 07:17:53;;;;;;;9.65;3.50;;;;;;;10.21;100.00;97747.13;4886745;29;20045;-95
2023/11/11 07:20:21;;;;;;;14.82;3.58;;;;;;;10.67;100.00;97828.50;4886867;29;20048;-92
2023/11/11 07:22:48;;;;;;;15.10;2.42;;;;;;;10.60;100.00;97799.56;4893252;29;20073;-94
2023/11/11 07:25:16;;;;;;;6.68;1.80;;;;;;;11.33;100.00;97904.56;4893983;29;20098;-92
2023/11/11 07:27:44;;;;;;;7.85;1.92;;;;;;;11.33;100.00;97877.97;4884613;29;20087;-93
2023/11/11 07:30:14;;;;;;;6.05;1.75;;;;;;;11.23;100.00;97820.75;4895699;29;20414;-93
2023/11/11 07:32:40;;;;;;;7.40;2.10;;;;;;;11.27;100.00;97828.53;4892205;29;20048;-94
2023/11/11 07:35:10;;;;;;;7.97;2.00;;;;;;;11.08;100.00;97782.38;4902060;29;20044;-94
2023/11/11 07:37:36;;;;;;;6.43;1.73;;;;;;;11.93;100.00;97909.91;4893105;29;20081;-93
2023/11/11 07:40:11;;;;;;;8.18;1.75;;;;;;;11.81;100.00;97889.97;4889783;29;20044;-93
2023/11/11 07:42:37;;;;;;;7.88;2.03;;;;;;;11.61;100.00;97840.31;4889992;29;20116;-94
2023/11/11 07:45:20;;;;;;;7.68;1.10;;;;;;;11.68;100.00;97856.88;4889369;29;20447;-93
2023/11/11 07:47:46;;;;;;;4.15;0.90;;;;;;;11.27;100.00;97788.59;4890176;29;20064;-94
2023/11/11 07:50:18;;;;;;;2.45;0.95;;;;;;;12.03;100.00;97900.53;4888868;29;20498;-93
2023/11/11 07:52:47;;;;;;;7.82;1.33;;;;;;;11.49;100.00;97846.19;4892343;29;20116;-93
2023/11/11 07:55:15;;;;;;;7.30;1.27;;;;;;;11.21;100.00;97772.94;4907315;29;20058;-91
2023/11/11 07:57:47;;;;;;;5.03;1.00;;;;;;;11.55;100.00;97773.16;4905476;29;20054;-93
2023/11/11 08:00:18;;;;;;;7.35;0.77;;;;;;;12.34;100.00;97888.44;4905969;29;20123;-93
2023/11/11 08:02:47;;;;;;;4.28;1.02;;;;;;;12.80;100.00;97934.19;4907376;29;20052;-92
2023/11/11 08:05:13;;;;;;;7.35;1.30;;;;;;;11.87;100.00;97785.81;4907917;29;20052;-96
2023/11/11 08:07:39;;;;;;;9.55;1.00;;;;;;;12.10;100.00;97808.72;4908726;29;20546;-95
2023/11/11 08:10:06;;;;;;;6.25;1.55;;;;;;;12.47;100.00;97843.34;4908757;29;20048;-94
2023/11/11 08:12:35;;;;;;;5.70;1.27;;;;;;;12.54;100.00;97848.31;4907877;29;20104;-95
2023/11/11 08:15:06;;;;;;;6.82;1.10;;;;;;;12.44;100.00;97791.03;4892166;29;20044;-94
2023/11/11 08:17:37;;;;;;;7.55;1.20;;;;;;;13.33;100.00;97922.63;4889591;29;20136;-94
2023/11/11 08:20:11;;;;;;;7.53;2.00;;;;;;;12.93;100.00;97857.91;4889016;29;20087;-94
2023/11/11 08:22:39;;;;;;;6.22;1.08;;;;;;;12.80;100.00;97847.97;4889811;29;20063;-94
2023/11/11 08:25:07;;;;;;;5.10;1.10;;;;;;;13.13;100.00;97918.28;4897422;29;20064;-94
2023/11/11 08:27:33;;;;;;;5.72;0.90;;;;;;;13.28;100.00;97905.97;4908129;29;20044;-93
2023/11/11 08:30:00;;;;;;;5.20;0.80;;;;;;;13.26;100.00;97890.97;4924941;29;20142;-94
2023/11/11 08:32:26;;;;;;;4.10;1.05;;;;;;;13.40;100.00;97911.63;4910199;29;20086;-95
2023/11/11 08:34:53;;;;;;;3.50;1.13;;;;;;;13.80;100.00;97958.47;4908284;29;20082;-93
2023/11/11 08:37:19;;;;;;;2.28;0.88;;;;;;;13.51;100.00;97903.91;4907961;29;20048;-94
2023/11/11 08:39:45;;;;;;;2.67;0.82;;;;;;;13.05;100.00;97813.69;4907123;29;20052;-94
2023/11/11 08:42:11;;;;;;;7.78;1.55;;;;;;;13.02;100.00;97813.88;4904811;29;20578;-94
2023/11/11 08:44:37;;;;;;;4.32;1.00;;;;;;;13.64;100.00;97926.38;4903956;29;20036;-92
2023/11/11 08:47:03;;;;;;;5.50;2.08;;;;;;;13.49;100.00;97908.50;4888888;29;20045;-93
2023/11/11 08:49:29;;;;;;;6.50;1.92;;;;;;;13.14;100.00;97879.09;4905695;29;20040;-95
2023/11/11 08:51:57;;;;;;;3.53;1.63;;;;;;;13.14;100.00;97879.97;4909611;29;20147;-94
2023/11/11 08:54:23;;;;;;;3.67;1.77;;;;;;;12.97;100.00;97855.06;4908880;29;20442;-94
2023/11/11 08:56:49;;;;;;;6.57;1.30;;;;;;;13.71;100.00;97958.97;4909329;29;20048;-96
2023/11/11 08:59:14;;;;;;;4.32;1.33;;;;;;;13.09;100.00;97841.09;4904453;29;20036;-95
2023/11/11 09:01:40;;;;;;;5.07;1.75;;;;;;;13.24;100.00;97856.31;4889826;29;20068;-92
2023/11/11 09:04:06;;;;;;;3.20;1.40;;;;;;;12.62;100.00;97804.38;4894123;29;20076;-94
2023/11/11 09:06:32;;;;;;;7.13;1.40;;;;;;;13.67;100.00;97968.09;4897128;29;20040;-93
2023/11/11 09:09:00;;;;;;;6.22;1.33;;;;;;;13.68;100.00;97954.63;4888611;29;20083;-92
2023/11/11 09:11:26;;;;;;;7.90;2.17;;;;;;;13.23;100.00;97872.41;4897047;29;20044;-92
2023/11/11 09:13:52;;;;;;;7.93;3.03;;;;;;;13.39;100.00;97947.28;4902178;29;20096;-95
2023/11/11 09:16:18;;;;;;;7.95;2.53;;;;;;;13.23;100.00;97916.00;4893448;29;20562;-94
2023/11/11 09:18:44;;;;;;;8.38;2.38;;;;;;;13.42;100.00;97957.81;4895384;29;20044;-94
2023/11/11 09:21:11;;;;;;;6.65;2.40;;;;;;;13.52;100.00;97964.41;4906944;29;20066;-94
2023/11/11 09:23:37;;;;;;;8.57;2.85;;;;;;;12.82;100.00;97803.38;4889614;29;20111;-94
2023/11/11 09:42:54;;;;;;;8.15;2.33;;;;;;;15.58;100.00;97990.41;4831939;29;20046;-92
2023/11/11 09:49:55;;;;;;;12.77;3.45;;;;;;;14.78;100.00;97856.72;4814901;29;20498;-95
2023/11/11 09:53:48;;;;;;;;;;;;;;;15.79;100.00;98004.38;4758501;30;20059;-94
2023/11/11 10:00:44;;;;;;;9.35;2.55;;;;;;;14.72;100.00;97859.75;4824713;29;20075;-94
2023/11/11 10:03:31;;;;;;;8.27;2.40;;;;;;;14.66;100.00;97857.47;4896391;29;20577;-94
2023/11/11 10:06:01;;;;;;;6.07;2.05;;;;;;;15.38;100.00;97912.09;4887153;29;20529;-96
2023/11/11 10:08:27;;;;;;;;;;;;;;;16.19;100.00;97996.56;4883375;29;20055;-95
2023/11/11 10:10:53;;;;;;;7.68;2.83;;;;;;;15.36;100.00;97883.69;4886681;29;19924;-95
2023/11/11 10:13:19;;;;;;;6.88;2.63;;;;;;;15.31;100.00;97896.47;4887857;29;20068;-94
2023/11/11 10:15:48;;;;;;;6.25;2.60;;;;;;;15.30;100.00;97866.16;4887743;29;20064;-94
2023/11/11 10:18:14;;;;;;;6.07;2.50;;;;;;;15.88;100.00;97973.47;4880013;29;20040;-93
2023/11/11 10:20:49;;;;;;;9.68;2.28;;;;;;;15.59;100.00;97885.81;4888902;29;20041;-94
2023/11/11 10:23:18;;;;;;;9.55;2.50;;;;;;;15.86;100.00;97911.88;4880097;29;20044;-96
2023/11/11 10:25:46;;;;;;;7.95;2.30;;;;;;;16.14;100.00;97918.22;4883617;29;20033;-93
2023/11/11 10:28:14;;;;;;;7.70;1.73;;;;;;;16.69;100.00;97986.25;4871873;29;20117;-95
2023/11/11 10:30:45;;;;;;;6.45;1.70;;;;;;;15.85;100.00;97829.72;4881670;29;20075;-94
2023/11/11 10:33:14;;;;;;;6.97;1.27;;;;;;;16.81;100.00;97967.56;4887728;29;20068;-93
2023/11/11 10:35:40;;;;;;;9.73;1.77;;;;;;;16.05;100.00;97807.03;4886190;29;20092;-93
2023/11/11 10:38:09;;;;;;;5.28;1.17;;;;;;;16.62;100.00;97967.88;4883015;29;20056;-93
2023/11/11 10:40:37;;;;;;;10.00;1.95;;;;;;;16.82;100.00;97966.59;4887534;29;20132;-94
2023/11/11 10:43:06;;;;;;;6.40;1.75;;;;;;;15.96;100.00;97840.66;4886324;29;20052;-94
2023/11/11 10:45:35;;;;;;;5.57;1.10;;;;;;;15.76;100.00;97830.31;4886745;29;20068;-94
2023/11/11 10:48:04;;;;;;;7.22;2.15;;;;;;;16.09;100.00;97859.50;4886810;29;20048;-93
2023/11/11 10:50:30;;;;;;;11.23;1.73;;;;;;;15.96;100.00;97896.97;4880771;29;20051;-92
2023/11/11 10:52:58;;;;;;;11.55;1.23;;;;;;;16.27;100.00;97966.59;4884686;29;20041;-94
2023/11/11 10:55:30;;;;;;;7.43;1.10;;;;;;;15.76;100.00;97882.09;4884161;29;20132;-94
2023/11/11 10:57:59;;;;;;;5.97;0.90;;;;;;;15.91;100.00;97962.53;4877438;29;20049;-94
2023/11/11 11:00:26;;;;;;;7.20;1.55;;;;;;;15.20;100.00;97907.81;4887199;29;20112;-95
2023/11/11 11:02:56;;;;;;;11.13;1.75;;;;;;;15.13;100.00;97914.50;4903052;29;20045;-94
2023/11/11 11:05:30;;;;;;;9.55;1.13;;;;;;;14.33;100.00;97796.91;4878637;29;20402;-94
2023/11/11 11:08:06;;;;;;;10.95;2.10;;;;;;;14.51;100.00;97880.59;4877726;29;20048;-94
2023/11/11 11:10:36;;;;;;;;;;;;;;;15.01;100.00;97953.59;4882998;29;20112;-92
2023/11/11 11:13:05;;;;;;;7.70;2.05;;;;;;;14.79;100.00;97943.25;4880121;29;20386;-93
2023/11/11 11:15:40;;;;;;;12.73;1.95;;;;;;;15.17;100.00;97954.41;4885586;29;20048;-92
2023/11/11 11:18:10;;;;;;;8.55;2.08;;;;;;;14.61;100.00;97818.53;4879107;29;20052;-93
2023/11/11 11:20:41;;;;;;;10.38;2.30;;;;;;;15.00;100.00;97847.44;4884902;29;20471;-95
2023/11/11 11:23:11;;;;;;;8.50;1.92;;;;;;;15.31;100.00;97857.19;4888089;29;20052;-93
2023/11/11 11:25:41;;;;;;;7.85;1.25;;;;;;;15.79;100.00;97910.56;4888528;29;20411;-93
2023/11/11 11:28:15;;;;;;;7.78;1.25;;;;;;;15.81;93.92;97944.34;4875233;29;20113;-94
2023/11/11 11:30:42;;;;;;;8.55;1.05;;;;;;;15.33;87.70;97846.34;4878516;29;20060;-92
2023/11/11 11:33:08;;;;;;;11.95;1.40;;;;;;;15.85;88.24;97879.81;4881480;29;20037;-93
2023/11/11 11:35:37;;;;;;;7.13;0.88;;;;;;;15.20;92.30;97787.31;4888742;29;20028;-94
2023/11/11 11:38:07;;;;;;;6.93;0.70;;;;;;;15.69;87.25;97851.25;4888650;29;20116;-93
2023/11/11 11:40:37;;;;;;;5.53;0.68;;;;;;;16.02;90.10;97909.09;4874078;29;20052;-94
2023/11/11 11:43:10;;;;;;;7.85;0.95;;;;;;;15.28;94.42;97794.88;4883330;29;20040;-93
2023/11/11 11:45:38;;;;;;;5.13;0.60;;;;;;;15.44;86.16;97837.66;4876606;29;20045;-93
2023/11/11 11:48:07;;;;;;;12.35;1.25;;;;;;;15.89;89.97;97894.75;4887542;29;20060;-94
2023/11/11 11:50:34;;;;;;;7.88;1.10;;;;;;;15.54;90.93;97855.75;4888946;29;20061;-95
2023/11/11 11:53:13;;;;;;;6.80;2.92;;;;;;;15.91;94.77;97919.66;4885303;29;20457;-95
2023/11/11 11:55:51;;;;;;;6.43;1.10;;;;;;;15.76;89.75;97906.22;4904865;29;20068;-96
2023/11/11 11:58:21;;;;;;;5.03;0.90;;;;;;;14.97;93.73;97775.34;4890362;29;20394;-95
2023/11/11 12:00:58;;;;;;;7.47;1.17;;;;;;;15.23;100.00;97880.03;4889906;29;20112;-94
2023/11/11 12:03:30;;;;;;;8.35;1.10;;;;;;;15.56;97.26;97926.19;4889409;29;20052;-94